Time,TemperatureF,DewpointF,PressureIn,WindDirection,WindDirectionDegrees,WindSpeedMPH,WindSpeedGustMPH,Humidity,HourlyPrecipIn,Conditions,Clouds,dailyrainin,SoftwareType,DateUTC
2013-01-13 00:25:00,43.1,42.0,29.01,SW,214,0.0,2.0,95,0.00,,,0.00,weatherlink.com 1.10,2013-01-13 05:25:00,
2013-01-13 00:39:00,42.1,41.0,29.01,SW,236,0.0,2.0,96,0.00,,,0.00,weatherlink.com 1.10,2013-01-13 05:39:00,
2013-01-13 00:55:00,41.6,41.0,29.00,West,274,0.0,2.0,97,0.00,,,0.00,weatherlink.com 1.10,2013-01-13 05:55:00,
2013-01-13 01:10:00,41.2,40.0,29.01,SSE,150,0.0,0.0,97,0.00,,,0.00,weatherlink.com 1.10,2013-01-13 06:10:00,
2013-01-13 01:24:00,40.1,39.0,29.01,North,358,0.0,1.0,97,0.00,,,0.00,weatherlink.com 1.10,2013-01-13 06:24:00,
2013-01-13 01:39:00,41.0,40.0,29.01,North,359,0.0,0.0,97,0.00,,,0.00,weatherlink.com 1.10,2013-01-13 06:39:00,
2013-01-13 01:54:00,41.3,41.0,29.02,North,359,0.0,0.0,97,0.00,,,0.00,weatherlink.com 1.10,2013-01-13 06:54:00,
2013-01-13 02:09:00,42.5,42.0,29.03,SSW,206,1.0,1.0,98,0.00,,,0.00,weatherlink.com 1.10,2013-01-13 07:09:00,
2013-01-13 02:24:00,43.1,42.0,29.02,SSE,162,2.0,2.0,95,0.00,,,0.00,weatherlink.com 1.10,2013-01-13 07:24:00,
2013-01-13 02:39:00,43.3,42.0,29.02,SW,232,0.0,2.0,94,0.00,,,0.00,weatherlink.com 1.10,2013-01-13 07:39:00,
2013-01-13 02:54:00,44.9,42.0,29.01,SW,232,0.0,2.0,90,0.00,,,0.00,weatherlink.com 1.10,2013-01-13 07:54:00,
2013-01-13 03:09:00,44.8,42.0,29.01,SSW,207,0.0,1.0,90,0.00,,,0.00,weatherlink.com 1.10,2013-01-13 08:09:00,
2013-01-13 03:24:00,43.8,41.0,29.01,SSW,207,0.0,0.0,90,0.00,,,0.00,weatherlink.com 1.10,2013-01-13 08:24:00,
2013-01-13 03:39:00,43.4,41.0,28.99,SW,232,1.0,2.0,92,0.00,,,0.00,weatherlink.com 1.10,2013-01-13 08:39:00,
2013-01-13 03:55:00,42.5,41.0,29.00,SW,236,0.0,0.0,93,0.00,,,0.00,weatherlink.com 1.10,2013-01-13 08:55:00,
2013-01-13 04:10:00,45.2,42.0,29.00,SW,235,0.0,0.0,87,0.00,,,0.00,weatherlink.com 1.10,2013-01-13 09:10:00,
2013-01-13 04:25:00,48.0,41.0,28.99,SW,236,0.0,1.0,78,0.00,,,0.00,weatherlink.com 1.10,2013-01-13 09:25:00,
2013-01-13 04:40:00,47.9,41.0,28.98,NNE,30,0.0,0.0,78,0.00,,,0.00,weatherlink.com 1.10,2013-01-13 09:40:00,
2013-01-13 04:55:00,46.0,41.0,28.98,NNE,30,0.0,0.0,83,0.00,,,0.00,weatherlink.com 1.10,2013-01-13 09:55:00,
2013-01-13 05:10:00,45.7,41.0,28.98,NNE,30,0.0,0.0,84,0.00,,,0.00,weatherlink.com 1.10,2013-01-13 10:10:00,
2013-01-13 05:25:00,45.9,41.0,28.97,NNE,30,0.0,0.0,84,0.00,,,0.00,weatherlink.com 1.10,2013-01-13 10:25:00,
2013-01-13 05:40:00,45.6,41.0,28.97,SSW,207,0.0,2.0,84,0.00,,,0.00,weatherlink.com 1.10,2013-01-13 10:40:00,
2013-01-13 05:55:00,45.1,41.0,28.97,SSW,207,0.0,0.0,86,0.00,,,0.00,weatherlink.com 1.10,2013-01-13 10:55:00,
2013-01-13 06:10:00,44.5,41.0,28.98,SSW,204,0.0,1.0,86,0.00,,,0.00,weatherlink.com 1.10,2013-01-13 11:10:00,
2013-01-13 06:25:00,44.7,41.0,28.97,NNE,13,0.0,1.0,87,0.00,,,0.00,weatherlink.com 1.10,2013-01-13 11:25:00,
2013-01-13 06:40:00,45.1,42.0,28.98,NNE,29,0.0,4.0,88,0.00,,,0.00,weatherlink.com 1.10,2013-01-13 11:40:00,
2013-01-13 06:55:00,44.3,41.0,28.98,North,356,1.0,3.0,89,0.00,,,0.00,weatherlink.com 1.10,2013-01-13 11:55:00,
2013-01-13 07:10:00,47.5,41.0,28.98,NNW,347,0.0,3.0,79,0.00,,,0.00,weatherlink.com 1.10,2013-01-13 12:10:00,
2013-01-13 07:25:00,46.7,41.0,28.99,ENE,67,0.0,2.0,80,0.00,,,0.00,weatherlink.com 1.10,2013-01-13 12:25:00,
2013-01-13 07:40:00,46.7,41.0,28.98,NE,50,2.0,5.0,81,0.00,,,0.00,weatherlink.com 1.10,2013-01-13 12:40:00,
2013-01-13 08:10:00,46.2,41.0,28.99,North,4,0.0,3.0,82,0.00,,,0.00,weatherlink.com 1.10,2013-01-13 13:10:00,
2013-01-13 08:25:00,46.6,41.0,28.99,North,11,0.0,2.0,80,0.00,,,0.00,weatherlink.com 1.10,2013-01-13 13:25:00,
2013-01-13 08:40:00,48.3,41.0,28.99,NNE,32,0.0,4.0,76,0.00,,,0.00,weatherlink.com 1.10,2013-01-13 13:40:00,
2013-01-13 08:56:00,47.3,39.0,28.98,NW,315,0.0,8.0,72,0.00,,,0.00,weatherlink.com 1.10,2013-01-13 13:56:00,
2013-01-13 09:10:00,43.0,39.0,28.99,NE,50,1.0,3.0,84,0.00,,,0.00,weatherlink.com 1.10,2013-01-13 14:10:00,
2013-01-13 09:25:00,43.0,38.0,29.00,ENE,67,0.0,4.0,82,0.00,,,0.00,weatherlink.com 1.10,2013-01-13 14:25:00,
2013-01-13 09:40:00,45.9,41.0,28.99,ENE,57,0.0,4.0,82,0.00,,,0.00,weatherlink.com 1.10,2013-01-13 14:40:00,
2013-01-13 09:55:00,47.3,41.0,28.99,NW,308,0.0,4.0,80,0.00,,,0.00,weatherlink.com 1.10,2013-01-13 14:55:00,
2013-01-13 10:10:00,49.1,42.0,28.98,ENE,60,1.0,6.0,77,0.00,,,0.00,weatherlink.com 1.10,2013-01-13 15:10:00,
2013-01-13 10:26:00,50.8,43.0,28.97,ENE,61,2.0,8.0,75,0.00,,,0.00,weatherlink.com 1.10,2013-01-13 15:26:00,
2013-01-13 10:40:00,49.4,42.0,28.97,ESE,110,1.0,5.0,77,0.00,,,0.00,weatherlink.com 1.10,2013-01-13 15:40:00,
2013-01-13 10:55:00,49.9,43.0,28.96,NW,308,3.0,3.0,78,0.00,,,0.00,weatherlink.com 1.10,2013-01-13 15:55:00,
2013-01-13 11:11:00,50.0,43.0,28.95,North,6,1.0,3.0,78,0.00,,,0.00,weatherlink.com 1.10,2013-01-13 16:11:00,
2013-01-13 11:26:00,49.6,43.0,28.95,SE,126,1.0,4.0,78,0.00,,,0.00,weatherlink.com 1.10,2013-01-13 16:26:00,
2013-01-13 11:41:00,49.0,43.0,28.94,NE,39,1.0,3.0,80,0.00,,,0.00,weatherlink.com 1.10,2013-01-13 16:41:00,
2013-01-13 11:56:00,49.4,42.0,28.93,NNE,13,1.0,5.0,77,0.00,,,0.00,weatherlink.com 1.10,2013-01-13 16:56:00,
2013-01-13 12:11:00,49.5,42.0,28.93,NE,53,6.0,6.0,75,0.00,,,0.00,weatherlink.com 1.10,2013-01-13 17:11:00,
2013-01-13 12:26:00,50.3,43.0,28.92,NNE,32,1.0,7.0,76,0.00,,,0.00,weatherlink.com 1.10,2013-01-13 17:26:00,
2013-01-13 12:41:00,48.8,43.0,28.91,North,6,3.0,3.0,80,0.00,,,0.00,weatherlink.com 1.10,2013-01-13 17:41:00,
2013-01-13 12:56:00,50.7,44.0,28.91,NE,51,9.0,11.0,79,0.00,,,0.00,weatherlink.com 1.10,2013-01-13 17:56:00,
2013-01-13 13:11:00,52.0,45.0,28.90,ENE,58,2.0,9.0,76,0.00,,,0.00,weatherlink.com 1.10,2013-01-13 18:11:00,
2013-01-13 13:26:00,52.4,46.0,28.90,NE,46,3.0,8.0,78,0.00,,,0.00,weatherlink.com 1.10,2013-01-13 18:26:00,
2013-01-13 13:41:00,51.8,46.0,28.90,NNE,13,2.0,13.0,80,0.00,,,0.00,weatherlink.com 1.10,2013-01-13 18:41:00,
2013-01-13 13:57:00,53.1,47.0,28.89,NNE,25,2.0,7.0,80,0.00,,,0.00,weatherlink.com 1.10,2013-01-13 18:57:00,
2013-01-13 14:26:00,53.2,48.0,28.88,North,354,2.0,9.0,83,0.00,,,0.00,weatherlink.com 1.10,2013-01-13 19:26:00,
2013-01-13 14:41:00,53.1,48.0,28.87,NNE,27,5.0,7.0,84,0.00,,,0.00,weatherlink.com 1.10,2013-01-13 19:41:00,
2013-01-13 14:56:00,53.5,49.0,28.87,North,356,3.0,8.0,84,0.00,,,0.00,weatherlink.com 1.10,2013-01-13 19:56:00,
2013-01-13 15:12:00,52.4,48.0,28.88,North,8,4.0,6.0,84,0.00,,,0.00,weatherlink.com 1.10,2013-01-13 20:12:00,
2013-01-13 15:26:00,50.4,47.0,28.87,NE,37,5.0,9.0,88,0.00,,,0.00,weatherlink.com 1.10,2013-01-13 20:26:00,
2013-01-13 15:41:00,49.5,47.0,28.85,NNW,345,7.0,13.0,92,0.00,,,0.00,weatherlink.com 1.10,2013-01-13 20:41:00,
2013-01-13 15:56:00,48.6,46.0,28.85,NNE,23,5.0,12.0,92,0.00,,,0.00,weatherlink.com 1.10,2013-01-13 20:56:00,
2013-01-13 16:11:00,48.0,46.0,28.86,North,360,8.0,13.0,94,0.00,,,0.00,weatherlink.com 1.10,2013-01-13 21:11:00,
2013-01-13 16:26:00,48.6,47.0,28.87,West,280,3.0,7.0,94,0.00,,,0.00,weatherlink.com 1.10,2013-01-13 21:26:00,
2013-01-13 16:42:00,48.6,47.0,28.87,SSW,207,2.0,5.0,94,0.00,,,0.00,weatherlink.com 1.10,2013-01-13 21:42:00,
2013-01-13 16:56:00,46.7,45.0,28.88,SSW,203,0.0,5.0,93,0.00,,,0.00,weatherlink.com 1.10,2013-01-13 21:56:00,
2013-01-13 17:11:00,46.9,46.0,28.88,WNW,298,0.0,3.0,96,0.00,,,0.00,weatherlink.com 1.10,2013-01-13 22:11:00,
2013-01-13 17:26:00,46.4,45.0,28.88,SSE,158,1.0,2.0,96,0.00,,,0.00,weatherlink.com 1.10,2013-01-13 22:26:00,
2013-01-13 17:41:00,46.2,45.0,28.88,ENE,75,0.0,1.0,96,0.00,,,0.00,weatherlink.com 1.10,2013-01-13 22:41:00,
2013-01-13 17:56:00,47.3,47.0,28.88,SW,221,0.0,3.0,97,0.00,,,0.00,weatherlink.com 1.10,2013-01-13 22:56:00,
2013-01-13 18:11:00,46.7,46.0,28.88,WSW,257,0.0,2.0,97,0.00,,,0.00,weatherlink.com 1.10,2013-01-13 23:11:00,
2013-01-13 18:26:00,47.5,47.0,28.88,NE,53,1.0,6.0,97,0.00,,,0.00,weatherlink.com 1.10,2013-01-13 23:26:00,
2013-01-13 18:41:00,47.3,46.0,28.88,NNW,341,1.0,3.0,96,0.00,,,0.00,weatherlink.com 1.10,2013-01-13 23:41:00,
2013-01-13 18:56:00,48.3,48.0,28.89,SE,128,1.0,6.0,97,0.00,,,0.00,weatherlink.com 1.10,2013-01-13 23:56:00,
2013-01-13 19:12:00,49.4,48.0,28.89,South,189,0.0,2.0,95,0.00,,,0.00,weatherlink.com 1.10,2013-01-14 00:12:00,
2013-01-13 19:26:00,49.0,47.0,28.90,WSW,253,0.0,3.0,93,0.00,,,0.00,weatherlink.com 1.10,2013-01-14 00:26:00,
2013-01-13 19:41:00,49.5,48.0,28.89,WNW,288,0.0,4.0,94,0.00,,,0.00,weatherlink.com 1.10,2013-01-14 00:41:00,
2013-01-13 19:56:00,49.6,48.0,28.88,WSW,242,1.0,3.0,93,0.00,,,0.00,weatherlink.com 1.10,2013-01-14 00:56:00,
2013-01-13 20:26:00,49.9,48.0,28.88,SSW,212,0.0,2.0,93,0.00,,,0.00,weatherlink.com 1.10,2013-01-14 01:26:00,
2013-01-13 20:41:00,49.3,47.0,28.87,SSE,148,0.0,3.0,93,0.00,,,0.00,weatherlink.com 1.10,2013-01-14 01:41:00,
2013-01-13 20:57:00,49.1,48.0,28.88,SSW,210,0.0,3.0,94,0.00,,,0.00,weatherlink.com 1.10,2013-01-14 01:57:00,
2013-01-13 21:11:00,49.9,48.0,28.86,SSE,166,0.0,5.0,93,0.00,,,0.00,weatherlink.com 1.10,2013-01-14 02:11:00,
2013-01-13 21:26:00,49.3,47.0,28.86,South,190,0.0,1.0,93,0.00,,,0.00,weatherlink.com 1.10,2013-01-14 02:26:00,
2013-01-13 21:41:00,48.0,45.0,28.86,North,1,0.0,2.0,90,0.00,,,0.00,weatherlink.com 1.10,2013-01-14 02:41:00,
2013-01-13 21:56:00,46.8,45.0,28.86,NW,305,0.0,3.0,93,0.00,,,0.00,weatherlink.com 1.10,2013-01-14 02:56:00,
2013-01-13 22:12:00,48.8,48.0,28.86,SSE,151,0.0,3.0,95,0.00,,,0.00,weatherlink.com 1.10,2013-01-14 03:12:00,
2013-01-13 22:26:00,48.4,47.0,28.86,NE,34,0.0,3.0,95,0.00,,,0.00,weatherlink.com 1.10,2013-01-14 03:26:00,
2013-01-13 22:41:00,47.5,46.0,28.86,NNE,30,0.0,1.0,95,0.00,,,0.00,weatherlink.com 1.10,2013-01-14 03:41:00,
2013-01-13 22:56:00,48.0,47.0,28.86,NNW,340,1.0,1.0,96,0.00,,,0.00,weatherlink.com 1.10,2013-01-14 03:56:00,
2013-01-13 23:11:00,48.9,48.0,28.87,SE,130,0.0,4.0,96,0.00,,,0.00,weatherlink.com 1.10,2013-01-14 04:11:00,
2013-01-13 23:26:00,49.5,48.0,28.86,East,101,0.0,1.0,94,0.00,,,0.00,weatherlink.com 1.10,2013-01-14 04:26:00,
2013-01-13 23:41:00,49.1,47.0,28.86,NE,43,0.0,1.0,93,0.00,,,0.00,weatherlink.com 1.10,2013-01-14 04:41:00,
2013-01-13 23:57:00,48.7,47.0,28.86,SSW,210,0.0,1.0,94,0.00,,,0.00,weatherlink.com 1.10,2013-01-14 04:57:00,